createdAt,value
2019-04-07T00:00:33.200Z,100649.30
2019-04-07T00:03:05.213Z,100650.62
2019-04-07T00:05:36.815Z,100650.16
2019-04-07T00:08:08.410Z,100646.83
2019-04-07T00:10:40.175Z,100646.94
2019-04-07T00:13:12.364Z,100642.62
2019-04-07T00:15:44.009Z,100646.23
2019-04-07T00:18:15.614Z,100645.00
2019-04-07T00:20:47.364Z,100643.54
2019-04-07T00:23:18.913Z,100637.37
2019-04-07T00:25:50.943Z,100637.13
2019-04-07T00:28:22.611Z,100636.47
2019-04-07T00:30:54.168Z,100636.26
2019-04-07T00:33:25.807Z,100636.33
2019-04-07T00:35:59.247Z,100630.13
2019-04-07T00:38:30.824Z,100637.00
2019-04-07T00:41:02.500Z,100637.37
2019-04-07T00:43:35.195Z,100636.05
2019-04-07T00:46:06.964Z,100628.86
2019-04-07T00:48:38.775Z,100629.70
2019-04-07T00:51:11.094Z,100624.53
2019-04-07T00:53:42.860Z,100628.62
2019-04-07T00:56:14.644Z,100625.33
2019-04-07T00:58:46.635Z,100626.50
2019-04-07T01:01:20.688Z,100621.60
2019-04-07T01:03:52.431Z,100618.92
2019-04-07T01:06:24.200Z,100618.26
2019-04-07T01:08:55.886Z,100619.30
2019-04-07T01:11:27.600Z,100619.89
2019-04-07T01:13:59.289Z,100621.13
2019-04-07T01:16:30.917Z,100612.03
2019-04-07T01:19:03.408Z,100612.36
2019-04-07T01:21:35.657Z,100614.02
2019-04-07T01:24:07.487Z,100610.13
2019-04-07T01:26:39.359Z,100608.89
2019-04-07T01:29:10.984Z,100611.05
2019-04-07T01:31:43.091Z,100610.34
2019-04-07T01:34:15.048Z,100615.27
2019-04-07T01:36:46.708Z,100619.05
2019-04-07T01:39:18.363Z,100611.97
2019-04-07T01:41:51.552Z,100613.53
2019-04-07T01:44:30.935Z,100609.54
2019-04-07T01:47:20.182Z,100608.05
2019-04-07T01:49:59.765Z,100607.66
2019-04-07T01:52:39.907Z,100613.86
2019-04-07T01:55:13.117Z,100615.38
2019-04-07T01:57:58.463Z,100608.69
2019-04-07T02:00:48.413Z,100608.69
2019-04-07T02:03:21.855Z,100608.41
2019-04-07T02:06:03.653Z,100611.55
2019-04-07T02:08:55.740Z,100611.80
2019-04-07T02:11:41.281Z,100613.64
2019-04-07T02:14:17.651Z,100613.09
2019-04-07T02:16:52.205Z,100612.03
2019-04-07T02:19:27.072Z,100608.63
2019-04-07T02:22:15.854Z,100608.56
2019-04-07T02:24:49.877Z,100608.64
2019-04-07T02:27:29.414Z,100610.69
2019-04-07T02:30:13.093Z,100609.41
2019-04-07T02:33:02.503Z,100612.70
2019-04-07T02:35:39.031Z,100610.11
2019-04-07T02:38:15.837Z,100615.33
2019-04-07T02:40:53.937Z,100613.48
2019-04-07T02:43:27.404Z,100605.70
2019-04-07T02:46:04.236Z,100605.38
2019-04-07T02:48:37.653Z,100606.77
2019-04-07T02:51:10.846Z,100605.91
2019-04-07T02:53:53.220Z,100606.30
2019-04-07T02:56:29.449Z,100613.87
2019-04-07T02:59:12.044Z,100611.78
2019-04-07T03:01:46.778Z,100607.45
2019-04-07T03:04:37.084Z,100613.55
2019-04-07T03:07:13.618Z,100606.94
2019-04-07T03:09:58.820Z,100609.48
2019-04-07T03:12:41.409Z,100615.92
2019-04-07T03:15:24.902Z,100610.72
2019-04-07T03:18:12.609Z,100604.77
2019-04-07T03:20:49.532Z,100604.38
2019-04-07T03:23:35.120Z,100609.76
2019-04-07T03:26:11.432Z,100613.69
2019-04-07T03:28:51.340Z,100616.83
2019-04-07T03:31:29.166Z,100613.58
2019-04-07T03:34:09.180Z,100623.47
2019-04-07T03:37:12.685Z,100621.88
2019-04-07T03:39:24.946Z,100619.09
2019-04-07T03:42:03.948Z,100615.70
2019-04-07T03:44:53.204Z,100622.84
2019-04-07T03:47:26.539Z,100628.55
2019-04-07T03:50:08.948Z,100626.07
2019-04-07T03:52:58.413Z,100624.11
2019-04-07T03:55:35.198Z,100622.63
2019-04-07T03:58:14.793Z,100620.30
2019-04-07T04:01:11.670Z,100624.80
2019-04-07T04:04:00.707Z,100616.69
2019-04-07T04:06:50.232Z,100618.85
2019-04-07T04:09:26.769Z,100626.91
2019-04-07T04:12:03.157Z,100634.02
2019-04-07T04:14:51.300Z,100631.42
2019-04-07T04:17:25.014Z,100635.36
2019-04-07T04:19:57.368Z,100633.03
2019-04-07T04:22:30.692Z,100634.88
2019-04-07T04:25:02.909Z,100629.91
2019-04-07T04:27:35.279Z,100578.67
2019-04-07T04:30:12.100Z,100624.41
2019-04-07T04:32:44.200Z,100639.06
2019-04-07T04:35:16.935Z,100633.91
2019-04-07T04:37:52.375Z,100633.45
2019-04-07T04:40:22.418Z,100637.66
2019-04-07T04:42:55.042Z,100631.29
2019-04-07T04:45:27.568Z,100636.47
2019-04-07T04:48:00.196Z,100638.20
2019-04-07T04:50:32.021Z,100632.78
2019-04-07T04:53:04.085Z,100632.39
2019-04-07T04:55:35.800Z,100630.61
2019-04-07T04:58:08.712Z,100632.70
2019-04-07T05:00:41.452Z,100634.87
2019-04-07T05:03:13.759Z,100643.38
2019-04-07T05:05:45.719Z,100644.34
2019-04-07T05:08:17.657Z,100642.16
2019-04-07T05:10:49.485Z,100641.59
2019-04-07T05:13:21.377Z,100639.27
2019-04-07T05:15:53.722Z,100631.31
2019-04-07T05:18:25.623Z,100637.14
2019-04-07T05:20:58.698Z,100641.41
2019-04-07T05:23:30.704Z,100634.34
2019-04-07T05:26:03.823Z,100638.05
2019-04-07T05:28:38.027Z,100645.59
2019-04-07T05:31:09.855Z,100642.78
2019-04-07T05:33:42.016Z,100652.64
2019-04-07T05:36:13.730Z,100645.44
2019-04-07T05:38:45.502Z,100652.36
2019-04-07T05:41:17.203Z,100649.30
2019-04-07T05:43:49.136Z,100645.12
2019-04-07T05:46:21.814Z,100656.44
2019-04-07T05:48:53.478Z,100649.63
2019-04-07T05:51:25.059Z,100644.10
2019-04-07T05:53:57.074Z,100646.42
2019-04-07T05:56:29.494Z,100646.55
2019-04-07T05:59:01.775Z,100650.52
2019-04-07T06:01:33.614Z,100649.51
2019-04-07T06:04:05.645Z,100656.38
2019-04-07T06:06:39.874Z,100645.47
2019-04-07T06:09:11.750Z,100659.66
2019-04-07T06:11:43.489Z,100655.88
2019-04-07T06:14:16.652Z,100651.89
2019-04-07T06:16:51.885Z,100663.64
2019-04-07T06:19:21.678Z,100656.33
2019-04-07T06:21:55.650Z,100663.01
2019-04-07T06:24:31.616Z,100657.20
2019-04-07T06:27:00.916Z,100659.27
2019-04-07T06:29:33.443Z,100654.27
2019-04-07T06:32:07.726Z,100656.89
2019-04-07T06:34:41.099Z,100662.78
2019-04-07T06:37:12.257Z,100652.80
2019-04-07T06:39:44.100Z,100664.18
2019-04-07T06:42:15.856Z,100667.27
2019-04-07T06:44:50.133Z,100657.10
2019-04-07T06:47:30.802Z,100662.86
2019-04-07T06:50:21.190Z,100663.53
2019-04-07T06:53:03.307Z,100643.65
2019-04-07T06:55:58.448Z,100654.95
2019-04-07T06:58:29.920Z,100634.11
2019-04-07T07:01:09.927Z,100632.23
2019-04-07T07:03:43.311Z,100640.31
2019-04-07T07:06:19.641Z,100635.41
2019-04-07T07:08:55.490Z,100629.92
2019-04-07T07:11:45.005Z,100629.26
2019-04-07T07:14:42.318Z,100632.95
2019-04-07T07:17:27.975Z,100627.02
2019-04-07T07:20:03.622Z,100622.48
2019-04-07T07:22:36.129Z,100628.92
2019-04-07T07:25:10.314Z,100652.21
2019-04-07T07:27:42.742Z,100631.13
2019-04-07T07:30:17.458Z,100624.34
2019-04-07T07:32:48.558Z,100627.67
2019-04-07T07:35:20.561Z,100622.42
2019-04-07T07:37:53.713Z,100622.99
2019-04-07T07:40:26.493Z,100624.43
2019-04-07T07:42:59.105Z,100626.75
2019-04-07T07:45:34.980Z,100634.91
2019-04-07T07:48:06.401Z,100622.62
2019-04-07T07:50:39.552Z,100628.74
2019-04-07T07:53:11.441Z,100636.67
2019-04-07T07:55:43.121Z,100626.14
2019-04-07T07:58:15.697Z,100636.87
2019-04-07T08:00:47.594Z,100632.64
2019-04-07T08:03:22.662Z,100638.38
2019-04-07T08:05:52.431Z,100623.12
2019-04-07T08:08:25.374Z,100634.29
2019-04-07T08:11:00.676Z,100622.22
2019-04-07T08:13:32.481Z,100621.66
2019-04-07T08:16:06.246Z,100606.05
2019-04-07T08:18:40.681Z,100608.56
2019-04-07T08:21:12.661Z,100607.98
2019-04-07T08:23:45.424Z,100615.67
2019-04-07T08:26:18.345Z,100605.63
2019-04-07T08:28:50.379Z,100605.55
2019-04-07T08:31:22.939Z,100601.85
2019-04-07T08:33:55.963Z,100575.78
2019-04-07T08:36:27.728Z,100592.30
2019-04-07T08:39:00.991Z,100588.41
2019-04-07T08:41:34.331Z,100606.12
2019-04-07T08:44:07.224Z,100592.95
2019-04-07T08:46:43.130Z,100588.11
2019-04-07T08:49:14.985Z,100586.85
2019-04-07T08:51:46.689Z,100591.23
2019-04-07T08:54:18.526Z,100589.92
2019-04-07T08:56:50.260Z,100583.23
2019-04-07T08:59:21.928Z,100608.06
2019-04-07T09:01:54.796Z,100564.73
2019-04-07T09:04:26.599Z,100584.56
2019-04-07T09:07:00.689Z,100569.24
2019-04-07T09:09:35.969Z,100571.72
2019-04-07T09:12:07.074Z,100574.04
2019-04-07T09:14:41.944Z,100563.31
2019-04-07T09:17:30.675Z,100569.24
2019-04-07T09:20:06.102Z,100568.22
2019-04-07T09:22:36.382Z,100568.22
2019-04-07T09:25:26.147Z,100560.02
2019-04-07T09:27:59.348Z,100552.13
2019-04-07T09:30:32.633Z,100560.00
2019-04-07T09:33:15.985Z,100552.42
2019-04-07T09:35:59.416Z,100551.76
2019-04-07T09:38:33.394Z,100554.05
2019-04-07T09:41:27.302Z,100545.22
2019-04-07T09:44:05.275Z,100545.65
2019-04-07T09:46:57.478Z,100549.30
2019-04-07T09:49:31.009Z,100542.88
2019-04-07T09:52:13.208Z,100542.03
2019-04-07T09:54:46.085Z,100541.57
2019-04-07T09:57:20.052Z,100543.96
2019-04-07T10:00:10.244Z,100525.99
2019-04-07T10:02:49.246Z,100526.49
2019-04-07T10:05:40.440Z,100523.42
2019-04-07T10:08:18.248Z,100488.30
2019-04-07T10:11:07.577Z,100513.84
2019-04-07T10:13:57.717Z,100514.17
2019-04-07T10:16:47.330Z,100506.94
2019-04-07T10:19:21.104Z,100507.56
2019-04-07T10:21:57.262Z,100509.53
2019-04-07T10:24:37.068Z,100508.18
2019-04-07T10:27:27.453Z,100521.39
2019-04-07T10:30:03.602Z,100499.80
2019-04-07T10:32:36.841Z,100512.77
2019-04-07T10:35:19.181Z,100508.26
2019-04-07T10:37:55.073Z,100505.22
2019-04-07T10:40:37.949Z,100502.53
2019-04-07T10:43:28.903Z,100488.99
2019-04-07T10:46:18.678Z,100496.34
2019-04-07T10:49:07.912Z,100500.52
2019-04-07T10:51:44.280Z,100496.12
2019-04-07T10:54:17.447Z,100480.69
2019-04-07T10:56:55.219Z,100482.19
2019-04-07T10:59:32.199Z,100495.78
2019-04-07T11:02:22.755Z,100481.40
2019-04-07T11:05:13.023Z,100480.42
2019-04-07T11:08:09.191Z,100474.69
2019-04-07T11:10:58.531Z,100470.86
2019-04-07T11:13:43.945Z,100485.30
2019-04-07T11:16:36.604Z,100471.39
2019-04-07T11:19:21.441Z,100479.80
2019-04-07T11:22:00.897Z,100467.28
2019-04-07T11:24:35.142Z,100465.18
2019-04-07T11:27:14.809Z,100462.75
2019-04-07T11:29:57.431Z,100459.10
2019-04-07T11:32:53.313Z,100447.75
2019-04-07T11:35:30.775Z,100449.82
2019-04-07T11:38:22.158Z,100448.28
2019-04-07T11:41:14.103Z,100448.78
2019-04-07T11:43:54.546Z,100438.97
2019-04-07T11:46:30.854Z,100430.56
2019-04-07T11:49:29.012Z,100420.70
2019-04-07T11:52:10.051Z,100422.45
2019-04-07T11:54:52.138Z,100418.84
2019-04-07T11:57:36.311Z,100418.58
2019-04-07T12:00:12.360Z,100406.52
2019-04-07T12:02:49.355Z,100410.53
2019-04-07T12:05:34.363Z,100406.87
2019-04-07T12:08:10.528Z,100406.69
2019-04-07T12:10:58.432Z,100408.22
2019-04-07T12:13:31.308Z,100402.83
2019-04-07T12:16:17.670Z,100406.87
2019-04-07T12:18:52.460Z,100396.66
2019-04-07T12:21:28.189Z,100405.98
2019-04-07T12:24:23.932Z,100404.47
2019-04-07T12:27:13.917Z,100405.68
2019-04-07T12:29:58.248Z,100390.02
2019-04-07T12:32:38.569Z,100383.32
2019-04-07T12:35:27.679Z,100381.95
2019-04-07T12:38:17.637Z,100382.14
2019-04-07T12:41:15.211Z,100388.04
2019-04-07T12:44:01.673Z,100386.50
2019-04-07T12:46:46.764Z,100386.23
2019-04-07T12:49:23.159Z,100375.65
2019-04-07T12:52:15.197Z,100369.95
2019-04-07T12:54:48.599Z,100367.31
2019-04-07T15:15:09.986Z,100358.19
2019-04-07T15:17:39.330Z,100366.61
2019-04-07T15:20:13.708Z,100366.38
2019-04-07T15:22:46.135Z,100365.47
2019-04-07T15:25:18.351Z,100363.88
2019-04-07T15:27:50.037Z,100366.20
2019-04-07T15:30:22.274Z,100363.56
2019-04-07T15:32:57.810Z,100360.47
2019-04-07T15:35:27.610Z,100368.92
2019-04-07T15:38:00.149Z,100372.45
2019-04-07T15:40:35.014Z,100363.92
2019-04-07T15:43:07.667Z,100371.82
2019-04-07T15:45:39.665Z,100370.27
2019-04-07T15:48:12.468Z,100377.49
2019-04-07T15:50:44.164Z,100372.80
2019-04-07T15:53:16.635Z,100374.59
2019-04-07T15:55:59.082Z,100369.84
2019-04-07T15:58:22.523Z,100378.03
2019-04-07T16:00:55.068Z,100375.21
2019-04-07T16:03:26.657Z,100375.34
2019-04-07T16:06:02.468Z,100377.43
2019-04-07T16:08:34.893Z,100380.70
2019-04-07T16:11:08.049Z,100377.03
2019-04-07T16:13:40.204Z,100384.28
2019-04-07T16:16:14.532Z,100378.81
2019-04-07T16:18:48.486Z,100376.50
2019-04-07T16:21:20.721Z,100383.02
2019-04-07T16:23:53.996Z,100383.83
2019-04-07T16:26:26.103Z,100385.34
2019-04-07T16:28:57.795Z,100384.53
2019-04-07T16:31:30.046Z,100388.55
2019-04-07T16:34:05.728Z,100392.72
2019-04-07T16:36:35.227Z,100388.75
2019-04-07T16:39:09.585Z,100391.81
2019-04-07T16:41:44.204Z,100396.65
2019-04-07T16:44:14.646Z,100397.17
2019-04-07T16:46:46.219Z,100396.69
2019-04-07T16:49:19.006Z,100397.70
2019-04-07T16:51:51.566Z,100400.13
2019-04-07T16:54:23.471Z,100407.86
2019-04-07T16:56:57.535Z,100406.39
2019-04-07T16:59:29.364Z,100408.45
2019-04-07T17:02:00.926Z,100413.39
2019-04-07T17:04:34.971Z,100414.80
2019-04-07T17:07:12.663Z,100416.14
2019-04-07T17:09:42.802Z,100415.30
2019-04-07T17:12:15.013Z,100421.77
2019-04-07T17:14:47.095Z,100424.28
2019-04-07T17:17:21.933Z,100427.79
2019-04-07T17:19:57.123Z,100425.48
2019-04-07T17:22:27.096Z,100428.25
2019-04-07T17:25:02.061Z,100433.92
2019-04-07T17:27:32.622Z,100424.92
2019-04-07T17:30:06.933Z,100434.07
2019-04-07T17:32:39.194Z,100435.50
2019-04-07T17:35:15.206Z,100436.39
2019-04-07T17:37:47.334Z,100438.56
2019-04-07T17:40:22.671Z,100436.21
2019-04-07T17:42:56.728Z,100437.96
2019-04-07T17:45:40.757Z,100433.38
2019-04-07T17:48:37.412Z,100431.98
2019-04-07T17:51:11.480Z,100434.16
2019-04-07T17:54:02.629Z,100435.48
2019-04-07T17:56:52.538Z,100438.87
2019-04-07T17:59:38.941Z,100438.37
2019-04-07T18:02:12.465Z,100433.38
2019-04-07T18:05:02.487Z,100436.15
2019-04-07T18:07:37.891Z,100441.69
2019-04-07T18:10:22.649Z,100440.27
2019-04-07T18:12:57.713Z,100439.34
2019-04-07T18:15:38.323Z,100439.52
2019-04-07T18:18:18.803Z,100436.58
2019-04-07T18:21:06.083Z,100436.27
2019-04-07T18:23:39.820Z,100432.73
2019-04-07T18:26:29.726Z,100437.91
2019-04-07T18:29:04.336Z,100432.81
2019-04-07T18:31:40.130Z,100436.50
2019-04-07T18:34:33.338Z,100432.12
2019-04-07T18:37:24.758Z,100432.93
2019-04-07T18:40:13.270Z,100440.03
2019-04-07T18:42:53.540Z,100434.34
2019-04-07T18:45:32.806Z,100432.81
2019-04-07T18:48:09.272Z,100430.81
2019-04-07T18:51:00.796Z,100431.28
2019-04-07T18:53:41.797Z,100433.63
2019-04-07T18:56:32.579Z,100432.66
2019-04-07T18:59:21.453Z,100431.20
2019-04-07T19:02:11.086Z,100421.78
2019-04-07T19:05:00.230Z,100423.86
2019-04-07T19:07:37.890Z,100421.78
2019-04-07T19:10:24.176Z,100417.61
2019-04-07T19:13:05.715Z,100417.14
2019-04-07T19:15:40.004Z,100418.94
2019-04-07T19:18:15.235Z,100421.28
2019-04-07T19:20:55.671Z,100421.62
2019-04-07T19:24:08.727Z,100420.55
2019-04-07T19:26:54.602Z,100424.12
2019-04-07T19:29:46.456Z,100418.49
2019-04-07T19:32:25.371Z,100402.69
2019-04-07T19:35:16.851Z,100417.39
2019-04-07T19:38:06.853Z,100415.55
2019-04-07T19:41:00.229Z,100417.77
2019-04-07T19:43:50.016Z,100420.37
2019-04-07T19:46:33.381Z,100422.33
2019-04-07T19:49:14.963Z,100421.52
2019-04-07T19:52:05.816Z,100424.23
2019-04-07T19:54:37.841Z,100439.88
2019-04-07T19:57:11.259Z,100431.41
2019-04-07T19:59:47.235Z,100428.13
2019-04-07T20:02:24.097Z,100431.75
2019-04-07T20:05:10.560Z,100426.62
2019-04-07T20:08:02.926Z,100426.62
2019-04-07T20:10:54.559Z,100421.55
2019-04-07T20:13:40.885Z,100427.00
2019-04-07T20:16:32.602Z,100427.00
2019-04-07T20:19:08.824Z,100439.07
2019-04-07T20:21:43.560Z,100436.36
2019-04-07T20:24:23.901Z,100433.30
2019-04-07T20:27:00.869Z,100440.16
2019-04-07T20:29:43.791Z,100434.33
2019-04-07T20:32:18.643Z,100434.33
2019-04-07T20:34:54.868Z,100432.52
2019-04-07T20:37:37.976Z,100425.55
2019-04-07T20:40:11.501Z,100438.48
2019-04-07T20:42:50.642Z,100433.31
2019-04-07T20:45:28.956Z,100432.94
2019-04-07T20:48:21.295Z,100424.30
2019-04-07T20:50:58.339Z,100430.69
2019-04-07T20:53:40.912Z,100434.11
2019-04-07T20:56:25.019Z,100427.31
2019-04-07T20:59:13.956Z,100423.36
2019-04-07T21:02:07.508Z,100416.97
2019-04-07T21:04:42.251Z,100423.29
2019-04-07T21:07:16.411Z,100421.50
2019-04-07T21:09:53.541Z,100418.09
2019-04-07T21:12:31.070Z,100418.19
2019-04-07T21:15:18.180Z,100419.03
2019-04-07T21:17:40.982Z,100415.81
2019-04-07T21:20:30.625Z,100416.92
2019-04-07T21:23:07.142Z,100413.75
2019-04-07T21:25:57.199Z,100417.86
2019-04-07T21:28:40.721Z,100412.42
2019-04-07T21:31:32.120Z,100416.34
2019-04-07T21:34:14.367Z,100414.27
2019-04-07T21:36:48.384Z,100420.66
2019-04-07T21:39:39.929Z,100419.47
2019-04-07T21:42:30.780Z,100410.06
2019-04-07T21:45:29.378Z,100409.66
2019-04-07T21:48:00.293Z,100414.53
2019-04-07T21:50:42.566Z,100407.85
2019-04-07T21:53:19.644Z,100399.86
2019-04-07T21:56:01.814Z,100400.86
2019-04-07T21:58:45.441Z,100398.45
2019-04-07T22:01:21.533Z,100401.77
2019-04-07T22:03:54.598Z,100393.17
2019-04-07T22:06:29.483Z,100397.55
2019-04-07T22:09:19.174Z,100396.79
2019-04-07T22:11:51.549Z,100394.82
2019-04-07T22:14:24.128Z,100398.56
2019-04-07T22:16:55.749Z,100389.92
2019-04-07T22:19:28.596Z,100397.81
2019-04-07T22:22:00.421Z,100400.39
2019-04-07T22:24:33.957Z,100391.66
2019-04-07T22:27:05.659Z,100384.67
2019-04-07T22:29:37.597Z,100390.11
2019-04-07T22:32:10.296Z,100384.39
2019-04-07T22:34:41.948Z,100383.31
2019-04-07T22:37:15.577Z,100382.89
2019-04-07T22:39:47.060Z,100380.36
2019-04-07T22:42:19.254Z,100378.67
2019-04-07T22:44:53.750Z,100376.70
2019-04-07T22:47:24.323Z,100372.66
2019-04-07T22:49:56.885Z,100365.66
2019-04-07T22:52:30.113Z,100372.28
2019-04-07T22:55:04.770Z,100369.84
2019-04-07T22:57:35.508Z,100374.58
2019-04-07T23:00:12.863Z,100367.69
2019-04-07T23:02:46.570Z,100366.22
2019-04-07T23:05:19.143Z,100372.41
2019-04-07T23:07:50.851Z,100370.24
2019-04-07T23:10:23.571Z,100370.62
2019-04-07T23:12:55.323Z,100370.71
2019-04-07T23:15:39.578Z,100366.83
2019-04-07T23:18:01.452Z,100372.17
2019-04-07T23:20:33.041Z,100375.13
2019-04-07T23:23:04.770Z,100370.53
2019-04-07T23:25:38.488Z,100369.92
2019-04-07T23:28:10.346Z,100378.16
2019-04-07T23:30:42.793Z,100375.58
2019-04-07T23:33:14.708Z,100369.42
2019-04-07T23:35:46.862Z,100367.03
2019-04-07T23:38:19.538Z,100367.44
2019-04-07T23:40:52.437Z,100368.66
2019-04-07T23:43:24.933Z,100361.60
2019-04-07T23:45:56.826Z,100363.61
2019-04-07T23:48:28.496Z,100359.91
2019-04-07T23:51:00.040Z,100358.66
2019-04-07T23:54:10.760Z,100357.91
2019-04-07T23:56:43.880Z,100355.45
2019-04-07T23:59:16.635Z,100354.66
